Aviation Digital Data Service (ADDS)

Output produced by TAFs form (2005 UTC 23 March 2017)
found at http://www.aviationweather.gov/adds/tafs/
 
KRIC 231735Z 2318/2418 VRB05KT P6SM SKC 
     FM241600 21013G20KT P6SM SCT200